sensor_id;sensor_type;location;lat;lon;timestamp;pressure;altitude;pressure_sealevel;temperature
61977;BMP280;45905;50.570;10.428;2022-12-07T00:01:43;97895.09;;;2.94
61977;BMP280;45905;50.570;10.428;2022-12-07T00:04:14;97893.47;;;2.93
61977;BMP280;45905;50.570;10.428;2022-12-07T00:06:45;97889.38;;;2.92
61977;BMP280;45905;50.570;10.428;2022-12-07T00:09:17;97883.78;;;2.89
61977;BMP280;45905;50.570;10.428;2022-12-07T00:11:49;97882.22;;;2.88
61977;BMP280;45905;50.570;10.428;2022-12-07T00:14:18;97882.88;;;2.90
61977;BMP280;45905;50.570;10.428;2022-12-07T00:16:48;97867.78;;;2.91
61977;BMP280;45905;50.570;10.428;2022-12-07T00:19:16;97861.16;;;2.90
61977;BMP280;45905;50.570;10.428;2022-12-07T00:21:43;97859.56;;;2.89
61977;BMP280;45905;50.570;10.428;2022-12-07T00:24:11;97859.91;;;2.85
61977;BMP280;45905;50.570;10.428;2022-12-07T00:26:41;97859.31;;;2.82
61977;BMP280;45905;50.570;10.428;2022-12-07T00:29:20;97862.63;;;2.82
61977;BMP280;45905;50.570;10.428;2022-12-07T00:31:48;97863.22;;;2.85
61977;BMP280;45905;50.570;10.428;2022-12-07T00:34:20;97861.41;;;2.87
61977;BMP280;45905;50.570;10.428;2022-12-07T00:36:48;97853.91;;;2.87
61977;BMP280;45905;50.570;10.428;2022-12-07T00:39:16;97854.56;;;2.89
61977;BMP280;45905;50.570;10.428;2022-12-07T00:41:43;97847.66;;;2.93
61977;BMP280;45905;50.570;10.428;2022-12-07T00:44:10;97849.16;;;2.95
61977;BMP280;45905;50.570;10.428;2022-12-07T00:46:37;97839.94;;;2.96
61977;BMP280;45905;50.570;10.428;2022-12-07T00:49:04;97840.72;;;2.96
61977;BMP280;45905;50.570;10.428;2022-12-07T00:51:32;97834.03;;;2.97
61977;BMP280;45905;50.570;10.428;2022-12-07T00:53:59;97845.50;;;2.99
61977;BMP280;45905;50.570;10.428;2022-12-07T00:56:28;97830.47;;;2.99
61977;BMP280;45905;50.570;10.428;2022-12-07T00:59:01;97829.69;;;2.99
61977;BMP280;45905;50.570;10.428;2022-12-07T01:01:34;97835.47;;;2.99
61977;BMP280;45905;50.570;10.428;2022-12-07T01:04:03;97827.97;;;2.99
61977;BMP280;45905;50.570;10.428;2022-12-07T01:06:30;97829.69;;;2.99
61977;BMP280;45905;50.570;10.428;2022-12-07T01:08:58;97823.66;;;3.01
61977;BMP280;45905;50.570;10.428;2022-12-07T01:11:28;97832.88;;;3.01
61977;BMP280;45905;50.570;10.428;2022-12-07T01:13:58;97820.47;;;2.99
61977;BMP280;45905;50.570;10.428;2022-12-07T01:16:29;97812.97;;;2.99
61977;BMP280;45905;50.570;10.428;2022-12-07T01:18:58;97815.56;;;2.98
61977;BMP280;45905;50.570;10.428;2022-12-07T01:21:29;97816.38;;;2.98
61977;BMP280;45905;50.570;10.428;2022-12-07T01:23:58;97813.78;;;3.00
61977;BMP280;45905;50.570;10.428;2022-12-07T01:26:26;97819.56;;;3.00
61977;BMP280;45905;50.570;10.428;2022-12-07T01:28:54;97817.97;;;2.99
61977;BMP280;45905;50.570;10.428;2022-12-07T01:31:25;97812.31;;;2.97
61977;BMP280;45905;50.570;10.428;2022-12-07T01:33:59;97810.03;;;2.94
61977;BMP280;45905;50.570;10.428;2022-12-07T01:36:33;97807.41;;;2.96
61977;BMP280;45905;50.570;10.428;2022-12-07T01:39:06;97808.88;;;2.98
61977;BMP280;45905;50.570;10.428;2022-12-07T01:41:38;97807.84;;;3.01
61977;BMP280;45905;50.570;10.428;2022-12-07T01:44:22;97814.47;;;3.02
61977;BMP280;45905;50.570;10.428;2022-12-07T01:46:53;97808.66;;;3.01
61977;BMP280;45905;50.570;10.428;2022-12-07T01:52:30;97801.94;;;2.91
61977;BMP280;45905;50.570;10.428;2022-12-07T01:55:04;97812.97;;;2.88
61977;BMP280;45905;50.570;10.428;2022-12-07T01:57:37;97802.03;;;2.89
61977;BMP280;45905;50.570;10.428;2022-12-07T02:00:09;97797.72;;;2.91
61977;BMP280;45905;50.570;10.428;2022-12-07T02:05:18;97794.31;;;2.92
61977;BMP280;45905;50.570;10.428;2022-12-07T02:07:47;97795.81;;;2.95
61977;BMP280;45905;50.570;10.428;2022-12-07T02:10:18;97786.59;;;2.95
61977;BMP280;45905;50.570;10.428;2022-12-07T02:12:56;97788.06;;;2.98
61977;BMP280;45905;50.570;10.428;2022-12-07T02:25:08;97788.19;;;2.96
61977;BMP280;45905;50.570;10.428;2022-12-07T02:30:48;97787.16;;;2.99
61977;BMP280;45905;50.570;10.428;2022-12-07T02:33:31;97779.63;;;2.99
61977;BMP280;45905;50.570;10.428;2022-12-07T02:36:32;97787.28;;;2.97
61977;BMP280;45905;50.570;10.428;2022-12-07T02:41:47;97782.16;;;2.88
61977;BMP280;45905;50.570;10.428;2022-12-07T02:44:21;97781.56;;;2.85
61977;BMP280;45905;50.570;10.428;2022-12-07T02:47:00;97773.38;;;2.83
61977;BMP280;45905;50.570;10.428;2022-12-07T02:49:32;97769.75;;;2.86
61977;BMP280;45905;50.570;10.428;2022-12-07T02:51:59;97769.75;;;2.86
61977;BMP280;45905;50.570;10.428;2022-12-07T02:54:27;97768.16;;;2.85
61977;BMP280;45905;50.570;10.428;2022-12-07T02:57:50;97771.78;;;2.82
61977;BMP280;45905;50.570;10.428;2022-12-07T03:00:21;97773.84;;;2.77
61977;BMP280;45905;50.570;10.428;2022-12-07T03:03:08;97769.72;;;2.76
61977;BMP280;45905;50.570;10.428;2022-12-07T03:06:10;97764.03;;;2.74
61977;BMP280;45905;50.570;10.428;2022-12-07T03:08:59;97763.34;;;2.72
61977;BMP280;45905;50.570;10.428;2022-12-07T03:12:06;97765.75;;;2.73
61977;BMP280;45905;50.570;10.428;2022-12-07T03:14:46;97758.81;;;2.77
61977;BMP280;45905;50.570;10.428;2022-12-07T03:17:26;97764.16;;;2.72
61977;BMP280;45905;50.570;10.428;2022-12-07T03:20:02;97763.81;;;2.77
61977;BMP280;45905;50.570;10.428;2022-12-07T03:22:34;97754.38;;;2.80
61977;BMP280;45905;50.570;10.428;2022-12-07T03:25:11;97751.09;;;2.80
61977;BMP280;45905;50.570;10.428;2022-12-07T03:27:54;97755.19;;;2.81
61977;BMP280;45905;50.570;10.428;2022-12-07T03:30:43;97745.06;;;2.82
61977;BMP280;45905;50.570;10.428;2022-12-07T03:33:25;97743.34;;;2.83
61977;BMP280;45905;50.570;10.428;2022-12-07T03:36:23;97745.06;;;2.82
61977;BMP280;45905;50.570;10.428;2022-12-07T03:39:13;97747.22;;;2.76
61977;BMP280;45905;50.570;10.428;2022-12-07T03:41:45;97737.22;;;2.76
61977;BMP280;45905;50.570;10.428;2022-12-07T03:44:15;97738.00;;;2.76
61977;BMP280;45905;50.570;10.428;2022-12-07T03:50:04;97726.88;;;2.69
61977;BMP280;45905;50.570;10.428;2022-12-07T03:52:55;97734.47;;;2.68
61977;BMP280;45905;50.570;10.428;2022-12-07T03:55:34;97736.63;;;2.72
61977;BMP280;45905;50.570;10.428;2022-12-07T03:58:10;97729.28;;;2.71
61977;BMP280;45905;50.570;10.428;2022-12-07T04:00:38;97724.03;;;2.74
61977;BMP280;45905;50.570;10.428;2022-12-07T04:03:05;97728.00;;;2.76
61977;BMP280;45905;50.570;10.428;2022-12-07T04:05:32;97731.41;;;2.75
61977;BMP280;45905;50.570;10.428;2022-12-07T04:07:59;97728.81;;;2.77
61977;BMP280;45905;50.570;10.428;2022-12-07T04:10:27;97722.44;;;2.73
61977;BMP280;45905;50.570;10.428;2022-12-07T04:12:54;97733.13;;;2.75
61977;BMP280;45905;50.570;10.428;2022-12-07T04:15:21;97729.03;;;2.74
61977;BMP280;45905;50.570;10.428;2022-12-07T04:17:49;97729.03;;;2.74
61977;BMP280;45905;50.570;10.428;2022-12-07T04:20:16;97729.03;;;2.74
61977;BMP280;45905;50.570;10.428;2022-12-07T04:22:43;97731.41;;;2.75
61977;BMP280;45905;50.570;10.428;2022-12-07T04:25:10;97728.81;;;2.77
61977;BMP280;45905;50.570;10.428;2022-12-07T04:27:38;97728.59;;;2.80
61977;BMP280;45905;50.570;10.428;2022-12-07T04:30:05;97736.75;;;2.82
61977;BMP280;45905;50.570;10.428;2022-12-07T04:32:33;97727.56;;;2.82
61977;BMP280;45905;50.570;10.428;2022-12-07T04:35:00;97734.25;;;2.82
61977;BMP280;45905;50.570;10.428;2022-12-07T04:37:27;97720.41;;;2.78
61977;BMP280;45905;50.570;10.428;2022-12-07T04:39:54;97728.69;;;2.78
61977;BMP280;45905;50.570;10.428;2022-12-07T04:42:21;97724.59;;;2.77
61977;BMP280;45905;50.570;10.428;2022-12-07T04:44:48;97726.31;;;2.77
61977;BMP280;45905;50.570;10.428;2022-12-07T04:47:15;97723.59;;;2.80
61977;BMP280;45905;50.570;10.428;2022-12-07T04:49:43;97717.00;;;2.79
61977;BMP280;45905;50.570;10.428;2022-12-07T04:52:10;97722.09;;;2.77
61977;BMP280;45905;50.570;10.428;2022-12-07T04:54:37;97714.50;;;2.79
61977;BMP280;45905;50.570;10.428;2022-12-07T04:57:04;97715.16;;;2.81
61977;BMP280;45905;50.570;10.428;2022-12-07T04:59:31;97716.53;;;2.85
61977;BMP280;45905;50.570;10.428;2022-12-07T05:01:58;97714.25;;;2.82
61977;BMP280;45905;50.570;10.428;2022-12-07T05:04:25;97714.94;;;2.84
61977;BMP280;45905;50.570;10.428;2022-12-07T05:06:52;97713.13;;;2.85
61977;BMP280;45905;50.570;10.428;2022-12-07T05:09:19;97711.53;;;2.85
61977;BMP280;45905;50.570;10.428;2022-12-07T05:11:46;97712.31;;;2.85
61977;BMP280;45905;50.570;10.428;2022-12-07T05:14:19;97707.13;;;2.88
61977;BMP280;45905;50.570;10.428;2022-12-07T05:16:50;97708.56;;;2.90
61977;BMP280;45905;50.570;10.428;2022-12-07T05:19:18;97710.84;;;2.93
61977;BMP280;45905;50.570;10.428;2022-12-07T05:21:46;97715.63;;;2.96
61977;BMP280;45905;50.570;10.428;2022-12-07T05:24:16;97711.97;;;3.00
61977;BMP280;45905;50.570;10.428;2022-12-07T05:26:45;97705.38;;;2.99
61977;BMP280;45905;50.570;10.428;2022-12-07T05:29:15;97702.78;;;3.01
61977;BMP280;45905;50.570;10.428;2022-12-07T05:31:43;97707.56;;;3.04
61977;BMP280;45905;50.570;10.428;2022-12-07T05:34:11;97703.09;;;3.07
61977;BMP280;45905;50.570;10.428;2022-12-07T05:36:38;97710.38;;;3.10
61977;BMP280;45905;50.570;10.428;2022-12-07T05:39:06;97706.06;;;3.12
61977;BMP280;45905;50.570;10.428;2022-12-07T05:41:34;97707.78;;;3.11
61977;BMP280;45905;50.570;10.428;2022-12-07T05:44:19;97709.47;;;3.11
61977;BMP280;45905;50.570;10.428;2022-12-07T05:46:46;97713.56;;;3.12
61977;BMP280;45905;50.570;10.428;2022-12-07T05:49:13;97712.66;;;3.13
61977;BMP280;45905;50.570;10.428;2022-12-07T05:51:40;97710.72;;;3.16
61977;BMP280;45905;50.570;10.428;2022-12-07T05:54:07;97710.59;;;3.18
61977;BMP280;45905;50.570;10.428;2022-12-07T05:56:34;97712.19;;;3.19
61977;BMP280;45905;50.570;10.428;2022-12-07T05:59:02;97715.59;;;3.18
61977;BMP280;45905;50.570;10.428;2022-12-07T06:01:49;97723.38;;;3.15
61977;BMP280;45905;50.570;10.428;2022-12-07T06:04:17;97712.41;;;3.16
61977;BMP280;45905;50.570;10.428;2022-12-07T06:06:44;97715.59;;;3.18
61977;BMP280;45905;50.570;10.428;2022-12-07T06:09:12;97709.00;;;3.17
61977;BMP280;45905;50.570;10.428;2022-12-07T06:11:40;97717.22;;;3.19
61977;BMP280;45905;50.570;10.428;2022-12-07T06:14:26;97717.22;;;3.19
61977;BMP280;45905;50.570;10.428;2022-12-07T06:16:53;97710.50;;;3.19
61977;BMP280;45905;50.570;10.428;2022-12-07T06:19:20;97712.09;;;3.20
61977;BMP280;45905;50.570;10.428;2022-12-07T06:21:47;97714.47;;;3.22
61977;BMP280;45905;50.570;10.428;2022-12-07T06:24:16;97715.94;;;3.24
61977;BMP280;45905;50.570;10.428;2022-12-07T06:26:44;97710.16;;;3.23
61977;BMP280;45905;50.570;10.428;2022-12-07T06:29:12;97714.38;;;3.23
61977;BMP280;45905;50.570;10.428;2022-12-07T06:31:39;97710.16;;;3.23
61977;BMP280;45905;50.570;10.428;2022-12-07T06:34:12;97714.13;;;3.26
61977;BMP280;45905;50.570;10.428;2022-12-07T06:36:40;97721.53;;;3.27
61977;BMP280;45905;50.570;10.428;2022-12-07T06:39:08;97718.00;;;3.30
61977;BMP280;45905;50.570;10.428;2022-12-07T06:41:39;97719.72;;;3.29
61977;BMP280;45905;50.570;10.428;2022-12-07T06:44:06;97719.59;;;3.31
61977;BMP280;45905;50.570;10.428;2022-12-07T06:46:34;97725.25;;;3.33
61977;BMP280;45905;50.570;10.428;2022-12-07T06:49:05;97728.44;;;3.35
61977;BMP280;45905;50.570;10.428;2022-12-07T06:51:33;97720.59;;;3.39
61977;BMP280;45905;50.570;10.428;2022-12-07T06:54:03;97721.41;;;3.40
61977;BMP280;45905;50.570;10.428;2022-12-07T06:56:30;97722.06;;;3.42
61977;BMP280;45905;50.570;10.428;2022-12-07T06:58:58;97719.56;;;3.42
61977;BMP280;45905;50.570;10.428;2022-12-07T07:01:25;97725.50;;;3.41
61977;BMP280;45905;50.570;10.428;2022-12-07T07:03:52;97724.56;;;3.42
61977;BMP280;45905;50.570;10.428;2022-12-07T07:06:19;97716.94;;;3.43
61977;BMP280;45905;50.570;10.428;2022-12-07T07:08:47;97723.53;;;3.44
61977;BMP280;45905;50.570;10.428;2022-12-07T07:11:14;97715.13;;;3.45
61977;BMP280;45905;50.570;10.428;2022-12-07T07:13:41;97726.72;;;3.46
61977;BMP280;45905;50.570;10.428;2022-12-07T07:16:08;97726.72;;;3.46
61977;BMP280;45905;50.570;10.428;2022-12-07T07:18:36;97730.03;;;3.46
61977;BMP280;45905;50.570;10.428;2022-12-07T07:21:04;97737.53;;;3.46
61977;BMP280;45905;50.570;10.428;2022-12-07T07:23:31;97743.25;;;3.48
61977;BMP280;45905;50.570;10.428;2022-12-07T07:25:58;97739.13;;;3.47
61977;BMP280;45905;50.570;10.428;2022-12-07T07:28:25;97740.72;;;3.48
61977;BMP280;45905;50.570;10.428;2022-12-07T07:30:52;97740.16;;;3.45
61977;BMP280;45905;50.570;10.428;2022-12-07T07:33:19;97735.38;;;3.42
61977;BMP280;45905;50.570;10.428;2022-12-07T07:35:46;97740.38;;;3.42
61977;BMP280;45905;50.570;10.428;2022-12-07T07:38:13;97741.97;;;3.43
61977;BMP280;45905;50.570;10.428;2022-12-07T07:40:40;97744.25;;;3.46
61977;BMP280;45905;50.570;10.428;2022-12-07T07:43:07;97751.56;;;3.49
61977;BMP280;45905;50.570;10.428;2022-12-07T07:45:34;97761.56;;;3.49
61977;BMP280;45905;50.570;10.428;2022-12-07T07:48:02;97753.16;;;3.50
61977;BMP280;45905;50.570;10.428;2022-12-07T07:50:29;97758.81;;;3.52
61977;BMP280;45905;50.570;10.428;2022-12-07T07:52:57;97747.88;;;3.53
61977;BMP280;45905;50.570;10.428;2022-12-07T07:55:25;97757.69;;;3.56
61977;BMP280;45905;50.570;10.428;2022-12-07T07:57:52;97747.88;;;3.53
61977;BMP280;45905;50.570;10.428;2022-12-07T08:00:21;97752.91;;;3.53
61977;BMP280;45905;50.570;10.428;2022-12-07T08:02:48;97758.59;;;3.55
61977;BMP280;45905;50.570;10.428;2022-12-07T08:05:16;97758.00;;;3.51
61977;BMP280;45905;50.570;10.428;2022-12-07T08:07:43;97762.38;;;3.49
61977;BMP280;45905;50.570;10.428;2022-12-07T08:10:13;97761.56;;;3.49
61977;BMP280;45905;50.570;10.428;2022-12-07T08:12:42;97759.72;;;3.51
61977;BMP280;45905;50.570;10.428;2022-12-07T08:15:30;97756.09;;;3.55
61977;BMP280;45905;50.570;10.428;2022-12-07T08:17:58;97756.78;;;3.57
61977;BMP280;45905;50.570;10.428;2022-12-07T08:20:26;97754.16;;;3.58
61977;BMP280;45905;50.570;10.428;2022-12-07T08:22:53;97754.00;;;3.60
61977;BMP280;45905;50.570;10.428;2022-12-07T08:25:21;97748.09;;;3.61
61977;BMP280;45905;50.570;10.428;2022-12-07T08:27:51;97748.09;;;3.61
61977;BMP280;45905;50.570;10.428;2022-12-07T08:30:20;97753.78;;;3.62
61977;BMP280;45905;50.570;10.428;2022-12-07T08:32:47;97754.69;;;3.61
61977;BMP280;45905;50.570;10.428;2022-12-07T08:35:16;97759.59;;;3.63
61977;BMP280;45905;50.570;10.428;2022-12-07T08:37:44;97756.88;;;3.66
61977;BMP280;45905;50.570;10.428;2022-12-07T08:40:13;97759.13;;;3.69
61977;BMP280;45905;50.570;10.428;2022-12-07T08:42:42;97759.91;;;3.69
61977;BMP280;45905;50.570;10.428;2022-12-07T08:45:13;97764.69;;;3.72
61977;BMP280;45905;50.570;10.428;2022-12-07T08:48:06;97760.38;;;3.74
61977;BMP280;45905;50.570;10.428;2022-12-07T08:50:37;97763.56;;;3.76
61977;BMP280;45905;50.570;10.428;2022-12-07T08:53:07;97754.19;;;3.78
61977;BMP280;45905;50.570;10.428;2022-12-07T08:55:35;97757.38;;;3.80
61977;BMP280;45905;50.570;10.428;2022-12-07T08:58:03;97757.97;;;3.83
61977;BMP280;45905;50.570;10.428;2022-12-07T09:00:30;97756.00;;;3.87
61977;BMP280;45905;50.570;10.428;2022-12-07T09:02:57;97759.88;;;3.91
61977;BMP280;45905;50.570;10.428;2022-12-07T09:05:24;97752.78;;;3.96
61977;BMP280;45905;50.570;10.428;2022-12-07T09:07:57;97759.16;;;3.99
61977;BMP280;45905;50.570;10.428;2022-12-07T09:10:27;97758.25;;;4.00
61977;BMP280;45905;50.570;10.428;2022-12-07T09:12:54;97761.28;;;4.04
61977;BMP280;45905;50.570;10.428;2022-12-07T09:15:22;97756.28;;;4.04
61977;BMP280;45905;50.570;10.428;2022-12-07T09:17:49;97755.25;;;4.06
61977;BMP280;45905;50.570;10.428;2022-12-07T09:20:16;97756.84;;;4.07
61977;BMP280;45905;50.570;10.428;2022-12-07T09:22:43;97762.53;;;4.09
61977;BMP280;45905;50.570;10.428;2022-12-07T09:25:10;97760.84;;;4.10
61977;BMP280;45905;50.570;10.428;2022-12-07T09:27:38;97765.16;;;4.08
61977;BMP280;45905;50.570;10.428;2022-12-07T09:30:06;97761.06;;;4.07
61977;BMP280;45905;50.570;10.428;2022-12-07T09:32:33;97763.47;;;4.08
61977;BMP280;45905;50.570;10.428;2022-12-07T09:35:00;97764.16;;;4.10
61977;BMP280;45905;50.570;10.428;2022-12-07T09:37:27;97763.47;;;4.08
61977;BMP280;45905;50.570;10.428;2022-12-07T09:39:55;97765.75;;;4.11
61977;BMP280;45905;50.570;10.428;2022-12-07T09:42:38;97763.88;;;4.13
61977;BMP280;45905;50.570;10.428;2022-12-07T09:45:27;97757.97;;;4.14
61977;BMP280;45905;50.570;10.428;2022-12-07T09:47:58;97764.78;;;4.12
61977;BMP280;45905;50.570;10.428;2022-12-07T09:50:28;97764.78;;;4.12
61977;BMP280;45905;50.570;10.428;2022-12-07T09:53:14;97767.00;;;4.06
61977;BMP280;45905;50.570;10.428;2022-12-07T09:55:43;97764.72;;;4.03
61977;BMP280;45905;50.570;10.428;2022-12-07T09:58:26;97757.56;;;3.99
61977;BMP280;45905;50.570;10.428;2022-12-07T10:00:58;97756.66;;;3.99
61977;BMP280;45905;50.570;10.428;2022-12-07T10:03:29;97754.16;;;3.99
61977;BMP280;45905;50.570;10.428;2022-12-07T10:05:57;97748.22;;;4.00
61977;BMP280;45905;50.570;10.428;2022-12-07T10:08:25;97748.91;;;4.02
61977;BMP280;45905;50.570;10.428;2022-12-07T10:10:57;97743.63;;;4.05
61977;BMP280;45905;50.570;10.428;2022-12-07T10:13:42;97745.91;;;4.08
61977;BMP280;45905;50.570;10.428;2022-12-07T10:18:52;97741.44;;;4.12
61977;BMP280;45905;50.570;10.428;2022-12-07T10:21:25;97732.91;;;4.14
61977;BMP280;45905;50.570;10.428;2022-12-07T10:26:52;97731.50;;;4.21
61977;BMP280;45905;50.570;10.428;2022-12-07T10:32:34;97735.13;;;4.28
61977;BMP280;45905;50.570;10.428;2022-12-07T10:35:28;97733.03;;;4.33
61977;BMP280;45905;50.570;10.428;2022-12-07T10:37:59;97710.25;;;4.36
61977;BMP280;45905;50.570;10.428;2022-12-07T10:40:31;97705.63;;;4.40
61977;BMP280;45905;50.570;10.428;2022-12-07T10:49:03;97708.44;;;4.47
61977;BMP280;45905;50.570;10.428;2022-12-07T10:58:20;97721.31;;;4.53
61977;BMP280;45905;50.570;10.428;2022-12-07T11:01:21;97717.44;;;4.49
61977;BMP280;45905;50.570;10.428;2022-12-07T11:10:26;97708.66;;;4.55
61977;BMP280;45905;50.570;10.428;2022-12-07T11:16:21;97716.69;;;4.58
61977;BMP280;45905;50.570;10.428;2022-12-07T11:24:30;97707.41;;;4.49
61977;BMP280;45905;50.570;10.428;2022-12-07T11:33:06;97702.03;;;4.54
61977;BMP280;45905;50.570;10.428;2022-12-07T11:38:56;97678.66;;;4.53
61977;BMP280;45905;50.570;10.428;2022-12-07T11:41:33;97679.34;;;4.55
61977;BMP280;45905;50.570;10.428;2022-12-07T11:44:08;97681.19;;;4.53
61977;BMP280;45905;50.570;10.428;2022-12-07T11:52:49;97677.13;;;4.61
61977;BMP280;45905;50.570;10.428;2022-12-07T12:00:52;97666.16;;;4.62
61977;BMP280;45905;50.570;10.428;2022-12-07T12:03:34;97656.25;;;4.61
61977;BMP280;45905;50.570;10.428;2022-12-07T12:06:03;97657.47;;;4.66
61977;BMP280;45905;50.570;10.428;2022-12-07T12:09:19;97661.56;;;4.67
61977;BMP280;45905;50.570;10.428;2022-12-07T12:16:54;97646.38;;;4.69
61977;BMP280;45905;50.570;10.428;2022-12-07T12:22:38;97646.78;;;4.74
61977;BMP280;45905;50.570;10.428;2022-12-07T12:25:22;97641.66;;;4.75
61977;BMP280;45905;50.570;10.428;2022-12-07T12:27:55;97650.66;;;4.77
61977;BMP280;45905;50.570;10.428;2022-12-07T12:33:13;97645.88;;;4.75
61977;BMP280;45905;50.570;10.428;2022-12-07T12:35:41;97651.44;;;4.78
61977;BMP280;45905;50.570;10.428;2022-12-07T12:38:32;97654.63;;;4.80
61977;BMP280;45905;50.570;10.428;2022-12-07T12:41:03;97657.53;;;4.85
61977;BMP280;45905;50.570;10.428;2022-12-07T12:43:51;97663.25;;;4.87
61977;BMP280;45905;50.570;10.428;2022-12-07T12:57:36;97652.00;;;4.91
61977;BMP280;45905;50.570;10.428;2022-12-07T13:00:21;97646.63;;;4.95
61977;BMP280;45905;50.570;10.428;2022-12-07T13:02:54;97646.38;;;4.98
61977;BMP280;45905;50.570;10.428;2022-12-07T13:05:29;97644.78;;;4.97
61977;BMP280;45905;50.570;10.428;2022-12-07T13:15:45;97621.81;;;5.01
61977;BMP280;45905;50.570;10.428;2022-12-07T13:26:38;97626.66;;;4.94
61977;BMP280;45905;50.570;10.428;2022-12-07T13:29:19;97613.31;;;4.93
61977;BMP280;45905;50.570;10.428;2022-12-07T13:31:48;97619.00;;;4.95
61977;BMP280;45905;50.570;10.428;2022-12-07T13:34:34;97615.97;;;5.01
61977;BMP280;45905;50.570;10.428;2022-12-07T13:37:18;97600.81;;;5.02
61977;BMP280;45905;50.570;10.428;2022-12-07T13:39:55;97610.31;;;5.08
61977;BMP280;45905;50.570;10.428;2022-12-07T13:45:13;97618.25;;;5.04
61977;BMP280;45905;50.570;10.428;2022-12-07T13:47:53;97630.69;;;5.05
61977;BMP280;45905;50.570;10.428;2022-12-07T13:50:29;97612.69;;;5.00
61977;BMP280;45905;50.570;10.428;2022-12-07T13:53:01;97618.09;;;4.96
61977;BMP280;45905;50.570;10.428;2022-12-07T13:55:30;97624.84;;;4.95
61977;BMP280;45905;50.570;10.428;2022-12-07T13:57:57;97629.84;;;4.95
61977;BMP280;45905;50.570;10.428;2022-12-07T14:00:27;97630.88;;;4.93
61977;BMP280;45905;50.570;10.428;2022-12-07T14:03:23;97631.66;;;4.84
61977;BMP280;45905;50.570;10.428;2022-12-07T14:08:48;97634.25;;;4.74
61977;BMP280;45905;50.570;10.428;2022-12-07T14:11:21;97618.75;;;4.59
61977;BMP280;45905;50.570;10.428;2022-12-07T14:14:01;97618.94;;;4.47
61977;BMP280;45905;50.570;10.428;2022-12-07T14:16:35;97617.50;;;4.45
61977;BMP280;45905;50.570;10.428;2022-12-07T14:19:21;97618.16;;;4.47
61977;BMP280;45905;50.570;10.428;2022-12-07T14:22:22;97606.69;;;4.44
61977;BMP280;45905;50.570;10.428;2022-12-07T14:24:51;97602.59;;;4.43
61977;BMP280;45905;50.570;10.428;2022-12-07T14:27:24;97595.72;;;4.45
61977;BMP280;45905;50.570;10.428;2022-12-07T14:29:57;97599.03;;;4.46
61977;BMP280;45905;50.570;10.428;2022-12-07T14:32:27;97603.25;;;4.45
61977;BMP280;45905;50.570;10.428;2022-12-07T14:37:35;97597.97;;;4.48
61977;BMP280;45905;50.570;10.428;2022-12-07T14:40:03;97598.09;;;4.47
61977;BMP280;45905;50.570;10.428;2022-12-07T14:42:33;97596.13;;;4.50
61977;BMP280;45905;50.570;10.428;2022-12-07T14:45:00;97594.97;;;4.54
61977;BMP280;45905;50.570;10.428;2022-12-07T14:47:28;97584.78;;;4.56
61977;BMP280;45905;50.570;10.428;2022-12-07T14:50:20;97588.38;;;4.53
61977;BMP280;45905;50.570;10.428;2022-12-07T14:52:59;97589.97;;;4.54
61977;BMP280;45905;50.570;10.428;2022-12-07T14:55:47;97584.28;;;4.52
61977;BMP280;45905;50.570;10.428;2022-12-07T14:58:16;97584.78;;;4.46
61977;BMP280;45905;50.570;10.428;2022-12-07T15:00:44;97576.31;;;4.47
61977;BMP280;45905;50.570;10.428;2022-12-07T15:03:11;97574.88;;;4.45
61977;BMP280;45905;50.570;10.428;2022-12-07T15:05:41;97586.84;;;4.41
61977;BMP280;45905;50.570;10.428;2022-12-07T15:08:12;97583.56;;;4.41
61977;BMP280;45905;50.570;10.428;2022-12-07T15:10:40;97587.09;;;4.38
61977;BMP280;45905;50.570;10.428;2022-12-07T15:13:08;97582.34;;;4.36
61977;BMP280;45905;50.570;10.428;2022-12-07T15:15:54;97588.91;;;4.27
61977;BMP280;45905;50.570;10.428;2022-12-07T15:18:23;97584.38;;;4.21
61977;BMP280;45905;50.570;10.428;2022-12-07T15:20:51;97588.59;;;4.21
61977;BMP280;45905;50.570;10.428;2022-12-07T15:23:18;97583.06;;;4.18
61977;BMP280;45905;50.570;10.428;2022-12-07T15:25:48;97582.94;;;4.19
61977;BMP280;45905;50.570;10.428;2022-12-07T15:28:16;97578.84;;;4.18
61977;BMP280;45905;50.570;10.428;2022-12-07T15:30:44;97577.47;;;4.14
61977;BMP280;45905;50.570;10.428;2022-12-07T15:33:13;97581.69;;;4.14
61977;BMP280;45905;50.570;10.428;2022-12-07T15:35:43;97584.31;;;4.12
61977;BMP280;45905;50.570;10.428;2022-12-07T15:38:11;97586.19;;;4.10
61977;BMP280;45905;50.570;10.428;2022-12-07T15:40:39;97584.28;;;4.03
61977;BMP280;45905;50.570;10.428;2022-12-07T15:43:08;97578.72;;;3.99
61977;BMP280;45905;50.570;10.428;2022-12-07T15:45:56;97588.19;;;3.96
61977;BMP280;45905;50.570;10.428;2022-12-07T15:48:23;97576.06;;;3.92
61977;BMP280;45905;50.570;10.428;2022-12-07T15:51:03;97580.25;;;3.91
61977;BMP280;45905;50.570;10.428;2022-12-07T15:53:30;97579.69;;;3.88
61977;BMP280;45905;50.570;10.428;2022-12-07T15:55:57;97577.47;;;3.85
61977;BMP280;45905;50.570;10.428;2022-12-07T15:58:25;97568.34;;;3.84
61977;BMP280;45905;50.570;10.428;2022-12-07T16:00:52;97576.53;;;3.86
61977;BMP280;45905;50.570;10.428;2022-12-07T16:03:19;97576.53;;;3.86
61977;BMP280;45905;50.570;10.428;2022-12-07T16:05:51;97573.59;;;3.81
61977;BMP280;45905;50.570;10.428;2022-12-07T16:08:18;97578.59;;;3.81
61977;BMP280;45905;50.570;10.428;2022-12-07T16:10:46;97571.78;;;3.83
61977;BMP280;45905;50.570;10.428;2022-12-07T16:13:13;97568.59;;;3.81
61977;BMP280;45905;50.570;10.428;2022-12-07T16:15:41;97577.56;;;3.83
61977;BMP280;45905;50.570;10.428;2022-12-07T16:18:09;97579.69;;;3.88
61977;BMP280;45905;50.570;10.428;2022-12-07T16:20:36;97577.19;;;3.88
61977;BMP280;45905;50.570;10.428;2022-12-07T16:23:03;97578.38;;;3.84
61977;BMP280;45905;50.570;10.428;2022-12-07T16:25:30;97579.97;;;3.85
61977;BMP280;45905;50.570;10.428;2022-12-07T16:27:57;97594.19;;;3.84
61977;BMP280;45905;50.570;10.428;2022-12-07T16:30:24;97593.41;;;3.84
61977;BMP280;45905;50.570;10.428;2022-12-07T16:32:52;97591.13;;;3.81
61977;BMP280;45905;50.570;10.428;2022-12-07T16:35:25;97593.75;;;3.80
61977;BMP280;45905;50.570;10.428;2022-12-07T16:37:52;97592.03;;;3.80
61977;BMP280;45905;50.570;10.428;2022-12-07T16:40:19;97584.75;;;3.77
61977;BMP280;45905;50.570;10.428;2022-12-07T16:42:46;97585.72;;;3.76
61977;BMP280;45905;50.570;10.428;2022-12-07T16:45:13;97579.91;;;3.76